Time;durP1;ratioP1;P1;durP2;ratioP2;P2;SDS_P1;SDS_P2;PMS_P1;PMS_P2;Temp;Humidity;BMP_temperature;BMP_pressure;BME280_temperature;BME280_humidity;BME280_pressure;Samples;Min_cycle;Max_cycle;Signal;HPM_P1;HPM_P2
2022/01/25 00:08:50;;;;;;;22.08;18.42;;;1.80;99.90;;;;;;4981149;28;20200;-75
2022/01/25 00:25:10;;;;;;;23.17;19.90;;;1.70;99.90;;;;;;5029653;28;20195;-75
2022/01/25 00:27:42;;;;;;;22.60;19.27;;;1.60;99.90;;;;;;5033080;28;20195;-74
2022/01/25 00:30:28;;;;;;;26.70;20.52;;;1.60;99.90;;;;;;5027611;28;20759;-73
2022/01/25 00:32:55;;;;;;;24.63;20.17;;;1.50;99.90;;;;;;5029998;28;20344;-74
2022/01/25 00:35:25;;;;;;;24.92;19.92;;;1.50;99.90;;;;;;5030647;28;20256;-74
2022/01/25 00:37:51;;;;;;;26.30;20.80;;;1.50;99.90;;;;;;5032644;28;20200;-74
2022/01/25 00:40:18;;;;;;;27.08;21.85;;;1.50;99.90;;;;;;5031429;28;20220;-74
2022/01/25 00:42:45;;;;;;;24.45;21.75;;;1.40;99.90;;;;;;5028867;28;20222;-74
2022/01/25 00:45:15;;;;;;;25.20;20.85;;;1.40;99.90;;;;;;5031124;28;20699;-73
2022/01/25 00:47:47;;;;;;;27.40;21.67;;;1.40;99.90;;;;;;5026078;28;20216;-74
2022/01/25 00:50:15;;;;;;;26.13;20.73;;;1.40;99.90;;;;;;5032235;28;20217;-74
2022/01/25 00:55:30;;;;;;;26.00;21.27;;;1.40;99.90;;;;;;5031618;28;20600;-73
2022/01/25 00:57:57;;;;;;;27.63;21.70;;;1.30;99.90;;;;;;5030011;28;20198;-74
2022/01/25 01:00:25;;;;;;;27.40;21.55;;;1.30;99.90;;;;;;5031873;28;20222;-74
2022/01/25 01:02:52;;;;;;;26.42;20.38;;;1.30;99.90;;;;;;5028664;28;20637;-73
2022/01/25 01:05:20;;;;;;;23.55;19.08;;;1.40;99.90;;;;;;5030817;28;20202;-73
2022/01/25 01:07:49;;;;;;;23.25;20.35;;;1.40;99.90;;;;;;5030376;28;20548;-73
2022/01/25 01:10:20;;;;;;;22.98;18.10;;;1.40;99.90;;;;;;5031757;28;20226;-73
2022/01/25 01:15:34;;;;;;;23.08;18.90;;;1.30;99.90;;;;;;5013476;28;20221;-74
2022/01/25 01:29:15;;;;;;;22.55;17.40;;;0.80;99.90;;;;;;5032149;28;20285;-73
2022/01/25 01:31:57;;;;;;;22.83;19.25;;;0.80;99.90;;;;;;5030390;28;20707;-73
2022/01/25 01:34:47;;;;;;;25.08;21.10;;;0.60;99.90;;;;;;5027112;28;20274;-73
2022/01/25 01:37:29;;;;;;;26.40;21.63;;;0.50;99.90;;;;;;5029966;28;20198;-73
2022/01/25 01:40:20;;;;;;;27.55;22.25;;;0.50;99.90;;;;;;5024240;28;20729;-73
2022/01/25 01:42:58;;;;;;;27.00;21.23;;;0.40;99.90;;;;;;5030541;28;20650;-73
2022/01/25 01:45:38;;;;;;;29.50;21.95;;;0.30;99.90;;;;;;5030141;28;20649;-73
2022/01/25 01:48:08;;;;;;;29.90;22.85;;;0.20;99.90;;;;;;5030098;28;20601;-73
2022/01/25 01:50:37;;;;;;;28.27;22.58;;;0.10;99.90;;;;;;5030666;28;20222;-73
2022/01/25 01:53:06;;;;;;;28.83;23.02;;;0.10;99.90;;;;;;5029284;28;20677;-73
2022/01/25 01:55:35;;;;;;;26.02;21.23;;;0.00;99.90;;;;;;5030178;28;20316;-73
2022/01/25 01:58:04;;;;;;;30.83;22.83;;;0.00;99.90;;;;;;5030350;28;20198;-73
2022/01/25 02:00:35;;;;;;;25.25;21.30;;;-0.10;99.90;;;;;;5030177;28;20677;-73
2022/01/25 02:03:02;;;;;;;30.27;22.58;;;-0.10;99.90;;;;;;5028758;28;20210;-73
2022/01/25 02:05:30;;;;;;;29.80;22.88;;;-0.10;99.90;;;;;;5029749;28;20194;-73
2022/01/25 02:07:57;;;;;;;25.95;20.80;;;-0.10;99.90;;;;;;5025930;28;20663;-74
2022/01/25 02:10:24;;;;;;;29.42;22.52;;;-0.10;99.90;;;;;;5030689;28;20213;-73
2022/01/25 02:12:53;;;;;;;35.47;24.40;;;-0.20;99.90;;;;;;5031407;28;20286;-73
2022/01/25 02:15:21;;;;;;;29.90;22.77;;;-0.20;99.90;;;;;;5029250;28;20799;-73
2022/01/25 02:22:20;;;;;;;29.15;21.08;;;-0.20;99.90;;;;;;5030126;28;20190;-73
2022/01/25 02:23:27;;;;;;;29.35;21.70;;;-0.20;99.90;;;;;;5029610;28;20212;-73
2022/01/25 02:25:57;;;;;;;32.75;22.98;;;-0.10;99.90;;;;;;5028814;28;20202;-73
2022/01/25 02:29:14;;;;;;;29.50;22.73;;;-0.10;99.90;;;;;;5029197;28;20197;-73
2022/01/25 02:31:42;;;;;;;29.35;23.33;;;-0.10;99.90;;;;;;5026628;28;20205;-73
2022/01/25 02:34:09;;;;;;;27.92;21.63;;;-0.10;99.90;;;;;;5025658;28;20217;-73
2022/01/25 02:36:37;;;;;;;34.95;25.17;;;-0.20;99.90;;;;;;5027389;28;20921;-75
2022/01/25 02:39:04;;;;;;;35.67;24.88;;;-0.20;99.90;;;;;;5031454;28;20190;-73
2022/01/25 02:41:31;;;;;;;34.00;24.52;;;-0.20;99.90;;;;;;5028873;28;20228;-73
2022/01/25 02:43:58;;;;;;;36.85;25.77;;;-0.30;99.90;;;;;;5031392;28;20292;-72
2022/01/25 02:49:08;;;;;;;35.75;26.08;;;-0.30;99.90;;;;;;5026758;28;20217;-73
2022/01/25 02:51:39;;;;;;;39.30;26.08;;;-0.30;99.90;;;;;;5027469;28;20202;-73
2022/01/25 02:54:08;;;;;;;38.60;26.02;;;-0.40;99.90;;;;;;5028619;28;20823;-72
2022/01/25 02:56:36;;;;;;;36.17;24.50;;;-0.40;99.90;;;;;;5029748;28;20223;-73
2022/01/25 02:59:05;;;;;;;33.70;25.45;;;-0.40;99.90;;;;;;5023587;28;20251;-72
2022/01/25 03:01:32;;;;;;;39.00;25.67;;;-0.40;99.90;;;;;;5029047;28;20481;-73
2022/01/25 03:04:00;;;;;;;31.77;24.08;;;-0.40;99.90;;;;;;5030658;28;20197;-73
2022/01/25 03:06:27;;;;;;;43.83;28.80;;;-0.40;99.90;;;;;;5029713;28;20198;-73
2022/01/25 03:08:55;;;;;;;43.50;29.10;;;-0.40;99.90;;;;;;5029178;28;20241;-73
2022/01/25 03:11:24;;;;;;;38.83;28.63;;;-0.40;99.90;;;;;;5028803;28;20557;-73
2022/01/25 03:13:54;;;;;;;35.13;25.90;;;-0.40;99.90;;;;;;5029998;28;20193;-72
2022/01/25 03:16:29;;;;;;;47.08;30.17;;;-0.40;99.90;;;;;;5028618;28;20210;-72
2022/01/25 03:18:58;;;;;;;38.22;28.30;;;-0.50;99.90;;;;;;5027553;28;20204;-72
2022/01/25 03:24:10;;;;;;;44.00;28.92;;;-0.50;99.90;;;;;;5025605;28;20204;-74
2022/01/25 03:26:37;;;;;;;42.92;30.33;;;-0.40;99.90;;;;;;5029062;28;20284;-73
2022/01/25 03:29:05;;;;;;;41.33;28.92;;;-0.40;99.90;;;;;;5028436;28;20601;-73
2022/01/25 03:31:32;;;;;;;48.13;31.90;;;-0.30;99.90;;;;;;5029078;28;20251;-72
2022/01/25 03:34:00;;;;;;;39.92;28.95;;;-0.40;99.90;;;;;;5029097;28;20211;-72
2022/01/25 03:36:27;;;;;;;48.28;31.30;;;-0.30;99.90;;;;;;5030016;28;20204;-73
2022/01/25 03:38:54;;;;;;;47.20;29.35;;;-0.30;99.90;;;;;;5029006;28;20204;-72
2022/01/25 03:41:24;;;;;;;48.90;30.95;;;-0.30;99.90;;;;;;5028622;28;20216;-73
2022/01/25 03:43:54;;;;;;;42.25;29.05;;;-0.30;99.90;;;;;;5028277;28;20197;-72
2022/01/25 03:46:29;;;;;;;48.35;32.70;;;-0.30;99.90;;;;;;5028258;28;20927;-73
2022/01/25 03:51:41;;;;;;;43.30;28.50;;;-0.30;99.90;;;;;;5025982;28;20219;-72
2022/01/25 03:54:08;;;;;;;45.00;30.98;;;-0.30;99.90;;;;;;5032701;28;20194;-73
2022/01/25 03:56:37;;;;;;;48.85;29.73;;;-0.30;99.90;;;;;;5032744;28;20194;-73
2022/01/25 03:59:05;;;;;;;42.08;30.85;;;-0.40;99.90;;;;;;5033090;28;20288;-73
2022/01/25 04:01:32;;;;;;;42.42;29.88;;;-0.40;99.90;;;;;;5031766;28;20248;-73
2022/01/25 04:04:02;;;;;;;55.30;33.55;;;-0.40;99.90;;;;;;5033805;28;20567;-73
2022/01/25 04:06:32;;;;;;;50.65;33.60;;;-0.40;99.90;;;;;;5033221;28;20206;-73
2022/01/25 04:08:59;;;;;;;49.85;34.13;;;-0.50;99.90;;;;;;5032075;28;20703;-73
2022/01/25 04:11:27;;;;;;;40.90;29.85;;;-0.40;99.90;;;;;;5031203;28;20316;-73
2022/01/25 04:13:57;;;;;;;55.92;34.83;;;-0.50;99.90;;;;;;5027421;28;20211;-72
2022/01/25 04:16:28;;;;;;;46.05;32.30;;;-0.50;99.90;;;;;;5032561;28;20324;-72
2022/01/25 04:19:05;;;;;;;49.45;33.05;;;-0.40;99.90;;;;;;5033026;28;20198;-76
2022/01/25 04:24:44;;;;;;;51.63;33.45;;;-0.50;99.90;;;;;;5011050;28;20240;-72
2022/01/25 04:27:11;;;;;;;48.97;31.60;;;-0.50;99.90;;;;;;5031593;28;20209;-73
2022/01/25 04:29:40;;;;;;;49.10;32.88;;;-0.50;99.90;;;;;;5031721;28;20218;-73
2022/01/25 04:32:10;;;;;;;49.50;31.02;;;-0.50;99.90;;;;;;5031800;28;20281;-73
2022/01/25 04:34:42;;;;;;;44.50;28.85;;;-0.50;99.90;;;;;;5024797;28;20228;-71
2022/01/25 04:51:13;;;;;;;47.85;32.58;;;-0.40;99.90;;;;;;5032229;28;20304;-71
2022/01/25 04:53:49;;;;;;;40.58;30.48;;;-0.40;99.90;;;;;;5030727;28;20213;-70
2022/01/25 04:56:22;;;;;;;43.40;29.48;;;-0.30;99.90;;;;;;5032487;28;20683;-69
2022/01/25 04:58:56;;;;;;;40.08;29.30;;;-0.30;99.90;;;;;;5032418;28;20193;-70
2022/01/25 05:01:24;;;;;;;39.55;28.33;;;-0.20;99.90;;;;;;5032580;28;20201;-71
2022/01/25 05:04:01;;;;;;;38.03;27.75;;;-0.10;99.90;;;;;;5031340;28;20220;-70
2022/01/25 05:06:29;;;;;;;39.03;28.35;;;0.00;99.90;;;;;;5030198;28;20319;-71
2022/01/25 05:09:06;;;;;;;36.60;29.38;;;0.00;99.90;;;;;;5031677;28;20645;-71
2022/01/25 05:11:35;;;;;;;40.95;27.73;;;0.10;99.90;;;;;;5029554;28;20204;-70
2022/01/25 05:14:15;;;;;;;40.65;26.60;;;0.10;99.90;;;;;;5024243;28;20212;-71
2022/01/25 05:16:53;;;;;;;39.25;29.52;;;0.10;99.90;;;;;;5031148;28;20272;-71
2022/01/25 05:19:35;;;;;;;34.75;25.80;;;0.10;99.90;;;;;;5025004;28;20214;-71
2022/01/25 05:22:06;;;;;;;37.10;28.08;;;0.20;99.90;;;;;;5031866;28;20293;-72
2022/01/25 05:24:34;;;;;;;36.17;26.85;;;0.20;99.90;;;;;;5031057;28;20248;-72
2022/01/25 05:27:01;;;;;;;35.63;26.30;;;0.20;99.90;;;;;;5031333;28;20201;-74
2022/01/25 05:29:28;;;;;;;37.75;26.50;;;0.20;99.90;;;;;;5031580;28;20272;-71
2022/01/25 05:31:57;;;;;;;34.30;27.13;;;0.20;99.90;;;;;;5031994;28;20209;-71
2022/01/25 05:34:24;;;;;;;33.88;26.05;;;0.30;99.90;;;;;;5028693;28;20281;-73
2022/01/25 05:36:51;;;;;;;32.15;24.63;;;0.30;99.90;;;;;;5027460;28;20251;-72
2022/01/25 05:39:22;;;;;;;34.30;25.40;;;0.30;99.90;;;;;;5029302;28;20714;-71
2022/01/25 05:41:56;;;;;;;36.47;26.52;;;0.30;99.90;;;;;;5030289;28;20197;-71
2022/01/25 05:44:27;;;;;;;35.58;26.60;;;0.40;99.90;;;;;;5029328;28;20194;-71
2022/01/25 05:47:05;;;;;;;35.25;25.90;;;0.40;99.90;;;;;;5031053;28;20225;-71
2022/01/25 05:49:35;;;;;;;31.23;23.67;;;0.40;99.90;;;;;;5031596;28;20213;-72
2022/01/25 05:52:04;;;;;;;32.25;24.83;;;0.40;99.90;;;;;;5029905;28;20193;-72
2022/01/25 05:54:31;;;;;;;32.38;24.60;;;0.40;99.90;;;;;;5029585;28;20673;-72
2022/01/25 05:56:58;;;;;;;32.53;25.10;;;0.40;99.90;;;;;;5029381;28;20225;-72
2022/01/25 05:59:25;;;;;;;36.33;25.30;;;0.40;99.90;;;;;;5028868;28;20580;-73
2022/01/25 06:01:52;;;;;;;32.17;22.88;;;0.30;99.90;;;;;;5028530;28;20194;-72
2022/01/25 06:04:21;;;;;;;34.47;25.23;;;0.30;99.90;;;;;;5024398;28;20198;-72
2022/01/25 06:06:49;;;;;;;35.17;26.27;;;0.30;99.90;;;;;;5031095;28;20260;-71
2022/01/25 06:09:16;;;;;;;36.15;26.50;;;0.20;99.90;;;;;;5024748;28;20220;-71
2022/01/25 06:11:44;;;;;;;34.45;25.15;;;0.20;99.90;;;;;;5021521;28;20686;-72
2022/01/25 06:14:11;;;;;;;34.97;26.38;;;0.10;99.90;;;;;;5026274;28;20229;-72
2022/01/25 06:16:37;;;;;;;35.97;26.23;;;0.10;99.90;;;;;;5027183;28;20210;-71
2022/01/25 06:19:05;;;;;;;41.28;28.33;;;0.00;99.90;;;;;;5027798;28;20655;-72
2022/01/25 06:21:32;;;;;;;37.13;26.75;;;0.00;99.90;;;;;;5027116;28;20206;-72
2022/01/25 06:24:00;;;;;;;35.85;26.40;;;0.00;99.90;;;;;;5024447;28;20205;-72
2022/01/25 06:26:27;;;;;;;34.83;26.10;;;0.00;99.90;;;;;;5023889;28;21809;-71
2022/01/25 06:28:54;;;;;;;34.13;26.27;;;0.00;99.90;;;;;;5028977;28;20245;-72
2022/01/25 06:31:21;;;;;;;37.90;26.60;;;0.00;99.90;;;;;;5025865;28;20227;-70
2022/01/25 06:33:48;;;;;;;34.78;26.25;;;0.00;99.90;;;;;;5019717;28;20205;-71
2022/01/25 06:36:16;;;;;;;34.47;26.65;;;0.00;99.90;;;;;;5009592;28;20225;-72
2022/01/25 06:38:43;;;;;;;34.30;24.83;;;0.00;99.90;;;;;;5023900;28;20226;-72
2022/01/25 06:41:12;;;;;;;35.95;25.90;;;0.00;99.90;;;;;;5021737;28;20194;-72
2022/01/25 06:43:40;;;;;;;34.03;24.30;;;0.10;99.90;;;;;;5024707;28;20194;-72
2022/01/25 06:46:07;;;;;;;33.05;24.17;;;0.10;99.90;;;;;;5022930;28;20675;-72
2022/01/25 06:48:34;;;;;;;36.67;25.50;;;0.10;99.90;;;;;;5027400;28;20834;-71
2022/01/25 06:51:01;;;;;;;33.55;25.88;;;0.10;99.90;;;;;;5028642;28;20223;-72
2022/01/25 06:53:28;;;;;;;31.70;24.10;;;0.10;99.90;;;;;;5022445;28;20202;-72
2022/01/25 06:55:56;;;;;;;30.25;23.08;;;0.10;99.90;;;;;;5027546;28;20222;-72
2022/01/25 06:58:24;;;;;;;29.88;23.27;;;0.10;99.90;;;;;;5029502;28;20272;-72
2022/01/25 07:00:51;;;;;;;30.70;23.30;;;0.20;99.90;;;;;;5028469;28;20193;-72
2022/01/25 07:03:18;;;;;;;30.17;24.45;;;0.20;99.90;;;;;;5027961;28;20277;-71
2022/01/25 07:05:45;;;;;;;31.63;23.30;;;0.20;99.90;;;;;;5021266;28;20206;-72
2022/01/25 07:08:12;;;;;;;32.63;23.58;;;0.20;99.90;;;;;;5026543;28;20380;-71
2022/01/25 07:10:39;;;;;;;33.88;24.52;;;0.20;99.90;;;;;;5028791;28;20226;-72
2022/01/25 07:13:06;;;;;;;32.90;22.92;;;0.20;99.90;;;;;;5027553;28;20213;-72
2022/01/25 07:15:34;;;;;;;31.65;23.95;;;0.20;99.90;;;;;;5026607;28;20349;-71
2022/01/25 07:18:02;;;;;;;34.05;23.90;;;0.10;99.90;;;;;;5026849;28;20198;-72
2022/01/25 07:20:29;;;;;;;33.47;24.95;;;0.10;99.90;;;;;;5027663;28;20222;-71
2022/01/25 07:22:56;;;;;;;35.35;25.67;;;0.10;99.90;;;;;;5027356;28;20329;-72
2022/01/25 07:25:25;;;;;;;34.25;24.65;;;0.10;99.90;;;;;;5026104;28;20190;-71
2022/01/25 07:27:52;;;;;;;34.00;23.65;;;0.10;99.90;;;;;;5029438;28;20313;-72
2022/01/25 07:30:19;;;;;;;33.08;24.13;;;0.10;99.90;;;;;;5027949;28;20217;-71
2022/01/25 07:32:47;;;;;;;36.72;25.55;;;0.20;99.90;;;;;;5032595;28;20210;-72
2022/01/25 07:35:14;;;;;;;31.27;23.88;;;0.20;99.90;;;;;;5025377;28;20198;-71
2022/01/25 07:37:41;;;;;;;33.20;24.25;;;0.10;99.90;;;;;;5033755;28;20263;-72
2022/01/25 07:40:10;;;;;;;30.77;23.17;;;0.20;99.90;;;;;;5025587;28;20224;-72
2022/01/25 07:42:39;;;;;;;32.30;24.40;;;0.10;99.90;;;;;;5033944;28;20198;-72
2022/01/25 07:45:10;;;;;;;35.50;24.35;;;0.10;99.90;;;;;;5031541;28;20204;-72
2022/01/25 07:47:38;;;;;;;38.97;28.02;;;0.20;99.90;;;;;;5033462;28;20194;-72
2022/01/25 07:50:08;;;;;;;43.72;27.02;;;0.20;99.90;;;;;;5031489;28;20237;-72
2022/01/25 07:52:36;;;;;;;36.67;25.35;;;0.40;99.90;;;;;;5033928;28;20186;-72
2022/01/25 07:55:03;;;;;;;30.52;23.30;;;0.80;99.90;;;;;;5031066;28;20285;-72
2022/01/25 07:57:30;;;;;;;26.83;21.85;;;1.20;99.90;;;;;;5033484;28;20226;-72
2022/01/25 07:59:57;;;;;;;24.27;21.67;;;1.50;99.90;;;;;;5032549;28;20220;-72
2022/01/25 08:02:25;;;;;;;24.33;20.92;;;1.60;99.90;;;;;;5030550;28;20293;-72
2022/01/25 08:04:52;;;;;;;24.35;19.33;;;1.60;99.90;;;;;;5027616;28;20232;-72
2022/01/25 08:07:20;;;;;;;27.50;21.48;;;1.50;99.90;;;;;;5033135;28;20212;-72
2022/01/25 08:09:48;;;;;;;25.23;20.33;;;1.50;99.90;;;;;;5031999;28;20301;-72
2022/01/25 08:12:16;;;;;;;24.13;19.58;;;1.50;99.90;;;;;;5032473;28;20260;-72
2022/01/25 08:14:44;;;;;;;25.90;19.73;;;1.40;99.90;;;;;;5026004;28;20835;-72
2022/01/25 08:17:11;;;;;;;24.45;20.27;;;1.30;99.90;;;;;;5032664;28;20225;-72
2022/01/25 08:19:38;;;;;;;23.83;20.70;;;1.30;99.90;;;;;;5030280;28;20214;-72
2022/01/25 08:22:06;;;;;;;28.60;21.98;;;1.30;99.90;;;;;;5026461;28;20227;-72
2022/01/25 08:24:34;;;;;;;26.08;21.42;;;1.30;99.90;;;;;;5030479;28;20206;-72
2022/01/25 08:27:02;;;;;;;26.90;22.42;;;1.30;99.90;;;;;;5031556;28;20244;-72
2022/01/25 08:29:28;;;;;;;27.73;22.23;;;1.50;99.90;;;;;;5032561;28;20217;-72
2022/01/25 08:31:55;;;;;;;25.38;21.40;;;1.70;99.90;;;;;;5030903;28;20280;-72
2022/01/25 08:34:22;;;;;;;26.13;21.67;;;1.80;99.90;;;;;;5031419;28;20288;-72
2022/01/25 08:36:50;;;;;;;27.45;20.90;;;1.90;99.90;;;;;;5025407;28;20223;-73
2022/01/25 08:39:17;;;;;;;27.30;20.23;;;2.00;99.90;;;;;;5030726;28;20229;-72
2022/01/25 08:41:45;;;;;;;24.58;20.67;;;2.20;99.90;;;;;;5030274;28;20286;-73
2022/01/25 08:44:12;;;;;;;26.17;21.35;;;2.40;99.90;;;;;;5029663;28;20237;-72
2022/01/25 08:46:40;;;;;;;25.60;21.42;;;2.60;99.90;;;;;;5031259;28;20283;-72
2022/01/25 08:49:07;;;;;;;25.90;20.50;;;2.70;99.90;;;;;;5031967;28;20214;-72
2022/01/25 08:51:34;;;;;;;26.80;20.55;;;2.90;99.90;;;;;;5028978;28;20223;-72
2022/01/25 08:54:01;;;;;;;22.70;18.90;;;3.30;99.90;;;;;;5027818;28;20227;-73
2022/01/25 08:56:28;;;;;;;25.75;20.30;;;3.60;99.90;;;;;;5023006;28;20230;-72
2022/01/25 08:58:56;;;;;;;22.52;17.52;;;4.10;99.90;;;;;;5030879;28;20220;-73
2022/01/25 09:01:24;;;;;;;24.05;19.13;;;4.60;99.90;;;;;;5029341;28;20212;-72
2022/01/25 09:03:51;;;;;;;20.83;18.70;;;5.30;99.90;;;;;;5029111;28;20676;-73
2022/01/25 09:06:18;;;;;;;23.88;20.02;;;5.80;99.90;;;;;;5029786;28;20193;-73
2022/01/25 09:08:45;;;;;;;21.45;16.20;;;6.40;99.90;;;;;;5030148;28;20221;-73
2022/01/25 09:11:12;;;;;;;22.10;17.02;;;6.90;99.90;;;;;;5022319;28;20201;-74
2022/01/25 09:13:40;;;;;;;21.83;17.73;;;7.20;99.90;;;;;;5028462;28;20205;-72
2022/01/25 09:16:08;;;;;;;20.63;17.25;;;7.60;99.90;;;;;;5028244;28;20256;-73
2022/01/25 09:18:36;;;;;;;21.20;17.15;;;8.20;99.90;;;;;;5029025;28;20309;-73
2022/01/25 09:21:03;;;;;;;17.85;16.15;;;8.80;99.90;;;;;;5028836;28;20198;-72
2022/01/25 09:23:31;;;;;;;19.45;17.17;;;9.30;99.90;;;;;;5029073;28;20208;-72
2022/01/25 09:25:58;;;;;;;17.70;15.90;;;10.00;99.90;;;;;;5028215;28;20201;-72
2022/01/25 09:28:25;;;;;;;16.85;15.25;;;10.70;99.90;;;;;;5028334;28;20240;-74
2022/01/25 09:30:52;;;;;;;19.77;17.65;;;11.30;99.90;;;;;;5027264;28;20249;-72
2022/01/25 09:33:20;;;;;;;18.92;17.02;;;11.60;99.90;;;;;;5026871;28;20291;-71
2022/01/25 09:35:47;;;;;;;18.13;16.30;;;12.10;99.90;;;;;;5027143;28;20212;-74
2022/01/25 09:38:15;;;;;;;16.63;15.02;;;12.40;98.00;;;;;;5023276;28;20220;-74
2022/01/25 09:40:42;;;;;;;18.13;16.42;;;12.40;96.20;;;;;;5027648;28;20197;-73
2022/01/25 09:43:09;;;;;;;18.05;16.33;;;12.40;95.40;;;;;;5019809;28;20203;-73
2022/01/25 09:45:37;;;;;;;19.15;17.23;;;12.30;95.00;;;;;;5022375;28;20282;-73
2022/01/25 09:48:06;;;;;;;18.80;16.90;;;12.20;94.60;;;;;;5025879;28;20211;-73
2022/01/25 09:50:35;;;;;;;18.25;16.45;;;12.30;94.40;;;;;;5027143;28;20210;-73
2022/01/25 09:53:04;;;;;;;18.10;16.20;;;12.50;95.10;;;;;;5028192;28;20281;-73
2022/01/25 09:55:33;;;;;;;18.88;16.95;;;13.00;94.40;;;;;;5027860;28;20220;-73
2022/01/25 09:58:02;;;;;;;19.05;17.15;;;13.40;93.60;;;;;;5026408;28;20783;-74
2022/01/25 10:00:32;;;;;;;18.05;16.35;;;13.80;93.40;;;;;;5026645;28;20230;-74
2022/01/25 10:03:07;;;;;;;18.92;17.33;;;14.10;92.10;;;;;;5027067;28;20198;-73
2022/01/25 10:05:38;;;;;;;20.27;18.38;;;14.30;91.70;;;;;;5029812;28;20272;-73
2022/01/25 10:08:07;;;;;;;21.48;18.50;;;14.60;91.60;;;;;;5024834;28;20796;-73
2022/01/25 10:10:39;;;;;;;26.90;24.27;;;14.80;90.10;;;;;;5030634;28;20197;-73
2022/01/25 10:13:12;;;;;;;20.13;18.23;;;15.10;89.60;;;;;;5027687;28;20992;-74
2022/01/25 10:15:40;;;;;;;20.43;18.40;;;15.00;88.10;;;;;;5029975;28;20964;-73
2022/01/25 10:18:07;;;;;;;21.07;19.10;;;15.10;87.00;;;;;;5029752;28;21005;-73
2022/01/25 10:20:40;;;;;;;19.70;17.80;;;15.00;86.90;;;;;;5026474;28;20986;-74
2022/01/25 10:23:10;;;;;;;20.53;18.60;;;14.90;86.70;;;;;;5027187;28;20472;-74
2022/01/25 10:25:40;;;;;;;19.53;16.90;;;15.10;85.50;;;;;;5028815;28;20465;-74
2022/01/25 10:28:12;;;;;;;19.97;17.90;;;15.10;85.10;;;;;;5028579;28;20490;-73
2022/01/25 10:30:48;;;;;;;18.63;16.77;;;15.30;85.20;;;;;;5029340;28;20495;-73
2022/01/25 10:33:29;;;;;;;18.80;17.00;;;15.60;85.80;;;;;;5024378;28;20969;-73
2022/01/25 10:35:59;;;;;;;20.33;18.33;;;16.00;83.00;;;;;;5025490;28;20514;-74
2022/01/25 10:38:29;;;;;;;18.60;16.90;;;16.30;82.20;;;;;;5028372;28;21180;-74
2022/01/25 10:41:03;;;;;;;19.83;18.00;;;16.70;80.00;;;;;;5028592;28;20461;-74
2022/01/25 10:43:32;;;;;;;20.67;18.83;;;17.00;79.50;;;;;;5028890;28;20542;-73
2022/01/25 10:46:11;;;;;;;19.87;18.17;;;16.90;76.70;;;;;;5029893;28;20459;-73
2022/01/25 10:48:40;;;;;;;19.87;17.97;;;16.70;76.70;;;;;;5027338;28;20493;-74
2022/01/25 10:51:10;;;;;;;19.80;18.00;;;16.40;78.00;;;;;;5028166;28;20453;-74
2022/01/25 10:53:38;;;;;;;23.73;21.30;;;16.40;76.90;;;;;;5029003;28;20820;-73
2022/01/25 10:56:06;;;;;;;23.10;20.80;;;16.10;76.80;;;;;;5028053;28;20460;-71
2022/01/25 10:58:38;;;;;;;21.63;19.63;;;15.80;76.80;;;;;;5025634;28;20496;-71
2022/01/25 11:01:06;;;;;;;21.20;19.20;;;15.40;77.30;;;;;;5028248;28;20198;-74
2022/01/25 11:03:35;;;;;;;22.33;20.17;;;15.30;78.80;;;;;;5030876;28;20625;-71
2022/01/25 11:06:15;;;;;;;22.27;19.90;;;15.50;77.50;;;;;;5029805;28;20464;-71
2022/01/25 11:08:44;;;;;;;24.23;21.73;;;15.70;77.30;;;;;;5032351;28;20504;-74
2022/01/25 11:11:22;;;;;;;25.05;22.65;;;15.70;76.60;;;;;;5032108;28;20874;-74
2022/01/25 11:13:52;;;;;;;27.20;24.33;;;15.50;77.40;;;;;;5028602;28;20193;-72
2022/01/25 11:16:19;;;;;;;25.67;23.17;;;15.30;77.40;;;;;;5028293;28;20292;-72
2022/01/25 11:18:46;;;;;;;25.60;23.00;;;15.40;77.90;;;;;;5030383;28;20488;-73
2022/01/25 11:21:15;;;;;;;26.13;23.40;;;15.30;77.10;;;;;;5033309;28;20475;-72
2022/01/25 11:23:44;;;;;;;25.40;22.83;;;15.20;77.40;;;;;;5024667;28;21068;-72
2022/01/25 11:26:13;;;;;;;24.40;22.00;;;15.10;77.20;;;;;;5030838;28;20464;-72
2022/01/25 11:28:42;;;;;;;23.80;21.45;;;14.90;77.50;;;;;;5032489;28;20583;-72
2022/01/25 11:31:12;;;;;;;24.77;22.17;;;14.70;78.00;;;;;;5033947;28;20277;-73
2022/01/25 11:33:43;;;;;;;23.63;21.25;;;14.70;79.20;;;;;;5030094;28;20198;-73
2022/01/25 11:36:11;;;;;;;25.33;22.70;;;14.90;79.70;;;;;;5029535;28;20201;-72
2022/01/25 11:38:43;;;;;;;25.73;21.90;;;15.40;78.20;;;;;;5030509;28;20506;-73
2022/01/25 11:41:12;;;;;;;24.87;22.47;;;15.60;76.80;;;;;;5029151;28;20507;-73
2022/01/25 11:43:43;;;;;;;25.47;23.07;;;15.70;76.10;;;;;;5030478;28;20990;-73
2022/01/25 11:46:10;;;;;;;26.17;23.57;;;15.70;76.60;;;;;;5033255;28;20457;-72
2022/01/25 11:48:43;;;;;;;25.10;22.70;;;15.80;75.90;;;;;;5031734;28;20504;-73
2022/01/25 11:51:19;;;;;;;26.93;24.23;;;15.70;76.10;;;;;;5032787;28;20463;-73
2022/01/25 11:53:49;;;;;;;25.60;23.20;;;15.60;75.90;;;;;;5031253;28;20475;-73
2022/01/25 11:56:17;;;;;;;24.52;22.00;;;15.30;76.00;;;;;;5031388;28;20297;-73
2022/01/25 11:58:54;;;;;;;25.65;23.05;;;15.20;76.60;;;;;;5031142;28;20756;-73
2022/01/25 12:01:24;;;;;;;25.95;23.55;;;15.10;76.40;;;;;;5030641;28;20202;-73
2022/01/25 12:03:53;;;;;;;25.20;22.77;;;14.90;76.70;;;;;;5032647;28;20198;-72
2022/01/25 12:06:24;;;;;;;26.00;23.40;;;15.00;76.80;;;;;;5027786;28;20205;-73
2022/01/25 12:09:15;;;;;;;25.70;23.27;;;15.30;77.10;;;;;;5027146;28;21101;-73
2022/01/25 12:11:46;;;;;;;26.07;23.40;;;15.50;75.90;;;;;;5026329;28;20201;-74
2022/01/25 12:14:26;;;;;;;25.17;22.67;;;15.60;75.50;;;;;;5025362;28;20461;-73
2022/01/25 12:17:00;;;;;;;24.53;22.23;;;15.60;76.10;;;;;;5028731;28;20480;-73
2022/01/25 12:19:36;;;;;;;23.67;21.27;;;15.50;75.60;;;;;;5027245;28;20604;-73
2022/01/25 12:22:15;;;;;;;25.92;23.27;;;15.50;75.00;;;;;;5031567;28;20527;-73
2022/01/25 12:25:07;;;;;;;24.50;22.10;;;15.30;75.30;;;;;;5028703;28;20201;-73
2022/01/25 12:27:49;;;;;;;26.90;24.10;;;15.00;75.90;;;;;;5030132;28;20702;-73
2022/01/25 12:30:21;;;;;;;26.25;23.55;;;14.60;76.20;;;;;;5028289;28;20659;-74
2022/01/25 12:32:58;;;;;;;26.05;23.55;;;14.60;76.90;;;;;;5027986;28;20189;-73
2022/01/25 12:35:38;;;;;;;25.02;22.58;;;14.40;77.70;;;;;;5026793;28;20731;-72
2022/01/25 12:38:10;;;;;;;26.23;23.65;;;14.30;78.40;;;;;;5022745;28;20260;-73
2022/01/25 12:40:50;;;;;;;25.73;23.23;;;14.50;78.00;;;;;;5025206;28;20205;-73
2022/01/25 12:43:20;;;;;;;24.37;21.90;;;14.50;78.00;;;;;;5024940;28;20205;-74
2022/01/25 12:45:53;;;;;;;24.83;22.40;;;14.80;77.90;;;;;;5029678;28;20448;-74
2022/01/25 12:48:25;;;;;;;27.90;25.03;;;14.90;77.50;;;;;;5020246;28;20236;-75
2022/01/25 12:50:54;;;;;;;26.23;23.73;;;14.90;76.80;;;;;;5017133;28;20482;-75
2022/01/25 12:53:24;;;;;;;25.73;23.13;;;15.00;77.30;;;;;;5023668;28;20203;-74
2022/01/25 12:55:55;;;;;;;26.33;23.63;;;14.70;77.60;;;;;;5032032;28;20475;-73
2022/01/25 12:58:23;;;;;;;26.40;23.80;;;14.50;77.70;;;;;;5029492;28;20279;-74
2022/01/25 13:00:52;;;;;;;28.25;25.35;;;14.30;78.10;;;;;;5030857;28;20205;-73
2022/01/25 13:03:29;;;;;;;27.95;25.13;;;13.90;78.90;;;;;;5031049;28;20216;-74
2022/01/25 13:05:59;;;;;;;19.80;17.92;;;13.80;79.80;;;;;;5026414;28;20232;-73
2022/01/25 13:08:31;;;;;;;28.30;25.55;;;14.00;91.60;;;;;;5017025;28;20746;-74
2022/01/25 13:11:22;;;;;;;29.95;26.73;;;13.90;81.70;;;;;;5029402;28;21900;-76
2022/01/25 13:14:01;;;;;;;28.85;25.85;;;13.40;81.30;;;;;;5021660;28;20198;-72
2022/01/25 13:16:56;;;;;;;29.15;26.25;;;12.90;82.50;;;;;;5026989;28;20288;-75
2022/01/25 13:19:27;;;;;;;28.98;25.83;;;12.40;84.20;;;;;;4981162;28;20661;-75
2022/01/25 13:21:57;;;;;;;29.15;25.80;;;12.00;84.00;;;;;;5027850;28;20209;-75
2022/01/25 13:24:29;;;;;;;30.25;27.05;;;11.40;85.90;;;;;;5028539;28;20201;-75
2022/01/25 13:27:01;;;;;;;29.75;26.58;;;10.70;87.60;;;;;;5028236;28;20193;-75
2022/01/25 13:32:24;;;;;;;30.33;26.35;;;9.50;91.20;;;;;;5031511;28;20252;-75
2022/01/25 13:35:27;;;;;;;33.15;28.15;;;8.80;92.60;;;;;;5031865;28;20297;-75
2022/01/25 13:38:08;;;;;;;33.35;26.30;;;8.10;94.30;;;;;;4966945;28;20318;-74
2022/01/25 13:40:46;;;;;;;34.50;27.58;;;7.70;95.90;;;;;;4970125;28;20215;-75
2022/01/25 13:46:14;;;;;;;33.65;28.45;;;7.10;98.90;;;;;;5009670;28;20194;-75
2022/01/25 13:48:43;;;;;;;34.00;29.65;;;6.90;99.90;;;;;;5030514;28;20308;-75
2022/01/25 13:51:14;;;;;;;34.17;28.63;;;6.70;99.90;;;;;;5031678;28;20272;-74
2022/01/25 13:53:41;;;;;;;31.77;28.25;;;6.60;99.90;;;;;;5031643;28;20205;-75
2022/01/25 13:56:10;;;;;;;34.63;28.65;;;6.50;99.90;;;;;;5024376;28;20193;-74
2022/01/25 13:58:41;;;;;;;35.25;29.50;;;6.50;99.90;;;;;;5031323;28;20253;-74